createdAt,value
2017-11-26T00:01:26.077Z,2.59
2017-11-26T00:03:53.763Z,2.48
2017-11-26T00:06:21.334Z,2.53
2017-11-26T00:08:48.909Z,2.41
2017-11-26T00:11:16.551Z,2.44
2017-11-26T00:13:44.212Z,2.36
2017-11-26T00:16:11.874Z,2.31
2017-11-26T00:18:39.442Z,2.23
2017-11-26T00:21:07.025Z,2.17
2017-11-26T00:23:34.657Z,2.10
2017-11-26T00:26:02.260Z,2.14
2017-11-26T00:28:29.837Z,2.10
2017-11-26T00:30:57.542Z,2.08
2017-11-26T00:33:25.203Z,1.99
2017-11-26T00:35:52.815Z,2.00
2017-11-26T00:38:20.383Z,2.02
2017-11-26T00:40:47.968Z,2.02
2017-11-26T00:43:15.587Z,2.08
2017-11-26T00:45:43.170Z,2.11
2017-11-26T00:48:10.770Z,2.32
2017-11-26T00:50:38.355Z,2.28
2017-11-26T00:53:05.961Z,2.38
2017-11-26T00:55:33.529Z,2.53
2017-11-26T00:58:01.140Z,2.53
2017-11-26T01:00:28.710Z,2.59
2017-11-26T01:02:56.339Z,2.62
2017-11-26T01:05:23.942Z,2.53
2017-11-26T01:07:51.526Z,2.64
2017-11-26T01:10:19.230Z,2.57
2017-11-26T01:12:46.805Z,2.56
2017-11-26T01:15:14.403Z,2.64
2017-11-26T01:17:42.106Z,2.60
2017-11-26T01:20:09.675Z,2.54
2017-11-26T01:22:43.400Z,2.53
2017-11-26T01:25:11.046Z,2.45
2017-11-26T01:27:38.629Z,2.37
2017-11-26T01:30:06.242Z,2.30
2017-11-26T01:32:33.821Z,2.26
2017-11-26T01:35:01.421Z,2.23
2017-11-26T01:37:28.984Z,2.17
2017-11-26T01:39:56.582Z,2.20
2017-11-26T01:42:24.270Z,2.21
2017-11-26T01:44:51.927Z,2.23
2017-11-26T01:47:19.538Z,2.20
2017-11-26T01:49:47.101Z,2.16
2017-11-26T01:52:14.708Z,2.01
2017-11-26T01:54:42.290Z,1.96
2017-11-26T01:57:09.940Z,2.06
2017-11-26T01:59:37.608Z,2.07
2017-11-26T02:02:05.187Z,1.97
2017-11-26T02:04:32.779Z,1.85
2017-11-26T02:07:00.359Z,1.86
2017-11-26T02:09:27.929Z,1.79
2017-11-26T02:11:55.501Z,1.72
2017-11-26T02:14:23.071Z,1.77
2017-11-26T02:16:51.549Z,1.80
2017-11-26T02:19:19.110Z,1.76
2017-11-26T02:21:46.705Z,1.91
2017-11-26T02:24:14.289Z,1.88
2017-11-26T02:26:41.871Z,1.82
2017-11-26T02:29:09.454Z,1.78
2017-11-26T02:31:48.888Z,1.86
2017-11-26T02:34:28.300Z,1.82
2017-11-26T02:36:55.890Z,1.91
2017-11-26T02:39:23.555Z,1.97
2017-11-26T02:41:51.179Z,1.95
2017-11-26T02:44:18.888Z,2.03
2017-11-26T02:46:46.467Z,2.07
2017-11-26T02:49:14.923Z,2.10
2017-11-26T02:51:42.489Z,2.14
2017-11-26T02:54:10.148Z,2.19
2017-11-26T02:56:37.797Z,2.15
2017-11-26T02:59:05.405Z,2.27
2017-11-26T03:01:32.977Z,2.19
2017-11-26T03:04:00.583Z,2.13
2017-11-26T03:06:28.154Z,2.18
2017-11-26T03:08:55.721Z,2.25
2017-11-26T03:11:23.754Z,2.28
2017-11-26T03:13:51.441Z,2.22
2017-11-26T03:16:19.006Z,2.13
2017-11-26T03:18:46.569Z,2.13
2017-11-26T03:21:14.170Z,2.19
2017-11-26T03:23:41.766Z,2.21
2017-11-26T03:26:09.384Z,2.20
2017-11-26T03:28:37.842Z,2.16
2017-11-26T03:31:06.196Z,2.14
2017-11-26T03:33:33.777Z,2.10
2017-11-26T03:36:01.395Z,2.04
2017-11-26T03:38:28.972Z,1.99
2017-11-26T03:40:56.596Z,1.92
2017-11-26T03:43:24.171Z,2.02
2017-11-26T03:45:51.740Z,2.02
2017-11-26T03:48:19.309Z,2.01
2017-11-26T03:50:46.877Z,1.91
2017-11-26T03:53:14.442Z,1.93
2017-11-26T03:55:42.015Z,1.91
2017-11-26T03:58:09.649Z,1.89
2017-11-26T04:00:37.250Z,1.88
2017-11-26T04:03:04.809Z,1.89
2017-11-26T04:05:33.289Z,1.96
2017-11-26T04:08:00.854Z,1.93
2017-11-26T04:10:28.505Z,1.95
2017-11-26T04:12:56.070Z,1.93
2017-11-26T04:15:23.630Z,2.08
2017-11-26T04:17:51.292Z,2.07
2017-11-26T04:20:18.881Z,2.05
2017-11-26T04:22:46.525Z,2.14
2017-11-26T04:25:14.125Z,2.07
2017-11-26T04:27:41.748Z,2.07
2017-11-26T04:30:10.230Z,2.01
2017-11-26T04:32:37.834Z,2.07
2017-11-26T04:35:06.196Z,1.96
2017-11-26T04:37:33.894Z,1.94
2017-11-26T04:40:01.589Z,1.86
2017-11-26T04:42:29.189Z,1.90
2017-11-26T04:44:57.504Z,1.88
2017-11-26T04:47:25.119Z,1.88
2017-11-26T04:49:52.696Z,1.72
2017-11-26T04:52:20.320Z,1.66
2017-11-26T04:54:48.703Z,1.58
2017-11-26T04:57:16.269Z,1.56
2017-11-26T04:59:43.838Z,1.50
2017-11-26T05:02:11.414Z,1.43
2017-11-26T05:04:38.999Z,1.41
2017-11-26T05:07:06.578Z,1.36
2017-11-26T05:09:34.147Z,1.33
2017-11-26T05:12:01.886Z,1.26
2017-11-26T05:14:29.466Z,1.22
2017-11-26T05:16:57.033Z,1.22
2017-11-26T05:19:24.653Z,1.25
2017-11-26T05:21:52.218Z,1.22
2017-11-26T05:24:20.439Z,1.22
2017-11-26T05:26:48.007Z,1.24
2017-11-26T05:29:15.634Z,1.26
2017-11-26T05:31:43.401Z,1.19
2017-11-26T05:34:11.004Z,1.21
2017-11-26T05:36:38.581Z,1.25
2017-11-26T05:39:06.771Z,1.25
2017-11-26T05:41:34.399Z,1.29
2017-11-26T05:44:01.977Z,1.31
2017-11-26T05:46:29.553Z,1.41
2017-11-26T05:48:57.120Z,1.47
2017-11-26T05:51:24.686Z,1.43
2017-11-26T05:53:52.302Z,1.35
2017-11-26T05:56:19.870Z,1.31
2017-11-26T05:58:47.435Z,1.30
2017-11-26T06:01:14.994Z,1.33
2017-11-26T06:03:42.753Z,1.27
2017-11-26T06:06:10.415Z,1.14
2017-11-26T06:08:37.999Z,1.09
2017-11-26T06:11:05.630Z,1.13
2017-11-26T06:13:33.252Z,1.12
2017-11-26T06:16:00.824Z,1.17
2017-11-26T06:18:28.397Z,1.23
2017-11-26T06:20:55.977Z,1.35
2017-11-26T06:23:23.559Z,1.50
2017-11-26T06:25:52.191Z,1.56
2017-11-26T06:28:19.762Z,1.64
2017-11-26T06:30:47.327Z,1.67
2017-11-26T06:33:14.918Z,1.75
2017-11-26T06:35:43.345Z,1.72
2017-11-26T06:38:11.809Z,1.73
2017-11-26T06:40:39.430Z,1.88
2017-11-26T06:43:07.005Z,1.83
2017-11-26T06:45:35.513Z,1.75
2017-11-26T06:48:03.134Z,1.70
2017-11-26T06:50:30.699Z,1.70
2017-11-26T06:52:58.274Z,1.73
2017-11-26T06:55:25.845Z,1.80
2017-11-26T06:57:53.418Z,1.85
2017-11-26T07:00:20.988Z,1.92
2017-11-26T07:02:48.564Z,2.02
2017-11-26T07:05:16.129Z,2.05
2017-11-26T07:07:43.693Z,2.11
2017-11-26T07:10:11.286Z,2.06
2017-11-26T07:12:38.857Z,2.13
2017-11-26T07:15:06.426Z,2.18
2017-11-26T07:17:34.025Z,2.22
2017-11-26T07:20:01.596Z,2.30
2017-11-26T07:22:29.166Z,2.22
2017-11-26T07:24:57.554Z,2.34
2017-11-26T07:27:25.174Z,2.35
2017-11-26T07:29:52.733Z,2.38
2017-11-26T07:32:20.352Z,2.45
2017-11-26T07:34:47.918Z,2.55
2017-11-26T07:37:15.509Z,2.56
2017-11-26T07:39:43.083Z,2.61
2017-11-26T07:42:10.703Z,2.57
2017-11-26T07:44:38.321Z,2.67
2017-11-26T07:47:05.918Z,2.64
2017-11-26T07:49:33.522Z,2.62
2017-11-26T07:52:01.416Z,2.67
2017-11-26T07:54:29.018Z,2.51
2017-11-26T07:56:56.677Z,2.50
2017-11-26T07:59:24.306Z,2.37
2017-11-26T08:01:51.880Z,2.41
2017-11-26T08:04:19.567Z,2.41
2017-11-26T08:06:47.140Z,2.43
2017-11-26T08:09:14.704Z,2.56
2017-11-26T08:11:43.041Z,2.58
2017-11-26T08:14:10.609Z,2.68
2017-11-26T08:16:38.191Z,2.73
2017-11-26T08:19:05.763Z,2.72
2017-11-26T08:21:33.336Z,2.62
2017-11-26T08:24:00.918Z,2.61
2017-11-26T08:26:28.477Z,2.54
2017-11-26T08:28:56.037Z,2.53
2017-11-26T08:31:23.597Z,2.74
2017-11-26T08:33:51.166Z,2.75
2017-11-26T08:36:19.595Z,2.87
2017-11-26T08:38:47.162Z,2.84
2017-11-26T08:41:14.730Z,2.83
2017-11-26T08:43:42.289Z,2.82
2017-11-26T08:46:09.863Z,2.88
2017-11-26T08:48:37.441Z,2.93
2017-11-26T08:51:05.022Z,2.92
2017-11-26T08:53:32.591Z,2.98
2017-11-26T08:56:00.165Z,3.02
2017-11-26T08:58:27.774Z,3.18
2017-11-26T09:00:55.341Z,3.11
2017-11-26T09:03:22.902Z,3.13
2017-11-26T09:05:50.457Z,3.18
2017-11-26T09:08:33.834Z,3.33
2017-11-26T09:11:01.395Z,3.36
2017-11-26T09:13:28.950Z,3.47
2017-11-26T09:15:56.518Z,3.55
2017-11-26T09:18:24.086Z,3.69
2017-11-26T09:20:51.655Z,3.76
2017-11-26T09:23:19.226Z,3.88
2017-11-26T09:25:46.798Z,4.06
2017-11-26T09:28:14.361Z,4.31
2017-11-26T09:30:41.927Z,4.47
2017-11-26T09:33:09.489Z,4.60
2017-11-26T09:35:37.749Z,4.62
2017-11-26T09:38:05.318Z,4.60
2017-11-26T09:40:32.877Z,4.57
2017-11-26T09:43:01.228Z,4.47
2017-11-26T09:45:29.583Z,4.47
2017-11-26T09:47:57.958Z,4.52
2017-11-26T09:50:25.530Z,4.46
2017-11-26T09:52:53.090Z,4.50
2017-11-26T09:55:21.562Z,4.56
2017-11-26T09:57:49.938Z,4.72
2017-11-26T10:00:17.547Z,4.82
2017-11-26T10:02:45.121Z,4.79
2017-11-26T10:05:13.501Z,4.90
2017-11-26T10:07:41.062Z,4.91
2017-11-26T10:10:08.955Z,4.95
2017-11-26T10:12:37.354Z,4.76
2017-11-26T10:15:04.947Z,4.83
2017-11-26T10:17:32.513Z,4.95
2017-11-26T10:20:00.128Z,5.02
2017-11-26T10:22:27.698Z,5.00
2017-11-26T10:24:56.182Z,4.90
2017-11-26T10:27:24.541Z,4.96
2017-11-26T10:29:53.041Z,5.06
2017-11-26T10:32:21.452Z,5.13
2017-11-26T10:34:49.112Z,5.22
2017-11-26T10:37:16.781Z,5.24
2017-11-26T10:39:44.341Z,5.13
2017-11-26T10:42:11.905Z,5.07
2017-11-26T10:44:39.469Z,5.03
2017-11-26T10:47:07.734Z,5.15
2017-11-26T10:49:35.335Z,5.08
2017-11-26T10:52:02.929Z,5.15
2017-11-26T10:54:30.490Z,5.17
2017-11-26T10:56:58.050Z,5.29
2017-11-26T10:59:25.610Z,5.27
2017-11-26T11:01:53.205Z,5.32
2017-11-26T11:04:20.770Z,5.33
2017-11-26T11:06:48.375Z,5.47
2017-11-26T11:09:15.953Z,5.38
2017-11-26T11:11:43.575Z,5.42
2017-11-26T11:14:11.130Z,5.42
2017-11-26T11:16:38.701Z,5.53
2017-11-26T11:19:06.261Z,5.59
2017-11-26T11:21:33.823Z,5.63
2017-11-26T11:24:01.453Z,5.51
2017-11-26T11:26:29.017Z,5.49
2017-11-26T11:28:56.678Z,5.43
2017-11-26T11:31:24.241Z,5.57
2017-11-26T11:33:51.803Z,5.54
2017-11-26T11:36:20.082Z,5.66
2017-11-26T11:38:47.646Z,5.73
2017-11-26T11:41:15.213Z,5.75
2017-11-26T11:43:42.864Z,6.04
2017-11-26T11:46:10.421Z,5.94
2017-11-26T11:48:37.981Z,5.90
2017-11-26T11:51:05.551Z,5.97
2017-11-26T11:53:33.159Z,6.05
2017-11-26T11:56:01.594Z,6.24
2017-11-26T11:58:29.157Z,6.36
2017-11-26T12:00:56.714Z,6.29
2017-11-26T12:03:24.278Z,6.21
2017-11-26T12:05:51.842Z,6.18
2017-11-26T12:08:19.451Z,6.27
2017-11-26T12:10:47.494Z,6.40
2017-11-26T12:13:15.062Z,6.29
2017-11-26T12:15:42.616Z,6.23
2017-11-26T12:18:10.182Z,6.17
2017-11-26T12:20:37.736Z,6.24
2017-11-26T12:23:05.302Z,6.30
2017-11-26T12:25:32.914Z,6.28
2017-11-26T12:28:00.473Z,6.21
2017-11-26T12:30:28.843Z,6.25
2017-11-26T12:32:57.167Z,6.35
2017-11-26T12:35:25.592Z,6.27
2017-11-26T12:37:53.464Z,6.29
2017-11-26T12:40:21.054Z,6.30
2017-11-26T12:42:48.657Z,6.37
2017-11-26T12:45:16.279Z,6.36
2017-11-26T12:47:43.938Z,6.43
2017-11-26T12:50:11.498Z,6.37
2017-11-26T12:52:39.099Z,6.36
2017-11-26T12:55:06.658Z,6.41
2017-11-26T12:57:34.253Z,6.33
2017-11-26T13:00:01.842Z,6.36
2017-11-26T13:02:29.410Z,6.34
2017-11-26T13:04:57.070Z,6.27
2017-11-26T13:07:25.617Z,6.46
2017-11-26T13:09:53.999Z,6.35
2017-11-26T13:12:22.359Z,6.36
2017-11-26T13:14:49.916Z,6.33
2017-11-26T13:17:18.389Z,6.31
2017-11-26T13:19:46.746Z,6.35
2017-11-26T13:22:15.268Z,6.25
2017-11-26T13:24:42.818Z,6.25
2017-11-26T13:27:10.436Z,6.14
2017-11-26T13:29:38.101Z,6.10
2017-11-26T13:32:05.669Z,6.09
2017-11-26T13:34:33.228Z,6.17
2017-11-26T13:37:00.891Z,6.14
2017-11-26T13:39:28.490Z,6.07
2017-11-26T13:41:56.045Z,6.03
2017-11-26T13:44:24.377Z,5.99
2017-11-26T13:46:52.873Z,5.99
2017-11-26T13:49:21.352Z,5.93
2017-11-26T13:51:48.978Z,5.84
2017-11-26T13:54:16.652Z,5.83
2017-11-26T13:56:44.210Z,5.84
2017-11-26T13:59:11.817Z,5.81
2017-11-26T14:01:39.461Z,5.69
2017-11-26T14:04:07.026Z,5.78
2017-11-26T14:06:34.600Z,5.77
2017-11-26T14:09:02.278Z,5.85
2017-11-26T14:11:29.878Z,5.69
2017-11-26T14:13:57.487Z,5.69
2017-11-26T14:16:25.075Z,5.75
2017-11-26T14:18:52.636Z,5.66
2017-11-26T14:21:20.207Z,5.66
2017-11-26T14:23:47.758Z,5.74
2017-11-26T14:26:15.315Z,5.73
2017-11-26T14:28:42.902Z,5.68
2017-11-26T14:31:10.459Z,5.58
2017-11-26T14:33:38.844Z,5.67
2017-11-26T14:36:06.433Z,5.61
2017-11-26T14:38:34.925Z,5.62
2017-11-26T14:41:03.243Z,5.56
2017-11-26T14:43:31.497Z,5.49
2017-11-26T14:45:59.919Z,5.57
2017-11-26T14:48:27.488Z,5.44
2017-11-26T14:50:55.046Z,5.43
2017-11-26T14:53:22.605Z,5.44
2017-11-26T14:55:50.159Z,5.45
2017-11-26T14:58:18.682Z,5.44
2017-11-26T15:00:46.351Z,5.46
2017-11-26T15:03:13.909Z,5.49
2017-11-26T15:05:41.465Z,5.45
2017-11-26T15:08:09.029Z,5.43
2017-11-26T15:10:36.591Z,5.46
2017-11-26T15:13:04.150Z,5.26
2017-11-26T15:15:31.738Z,5.25
2017-11-26T15:17:59.311Z,5.30
2017-11-26T15:20:26.903Z,5.24
2017-11-26T15:22:54.598Z,5.18
2017-11-26T15:25:22.170Z,5.18
2017-11-26T15:27:49.764Z,5.20
2017-11-26T15:30:18.106Z,5.16
2017-11-26T15:32:46.447Z,5.23
2017-11-26T15:35:14.862Z,5.18
2017-11-26T15:37:43.311Z,5.23
2017-11-26T15:40:11.762Z,5.35
2017-11-26T15:42:40.205Z,5.27
2017-11-26T15:45:08.757Z,5.29
2017-11-26T15:47:36.320Z,5.19
2017-11-26T15:50:03.909Z,5.29
2017-11-26T15:52:31.468Z,5.22
2017-11-26T15:54:59.041Z,5.19
2017-11-26T15:57:26.598Z,5.20
2017-11-26T15:59:54.161Z,5.18
2017-11-26T16:02:21.744Z,5.12
2017-11-26T16:04:49.788Z,5.16
2017-11-26T16:07:17.393Z,5.22
2017-11-26T16:09:44.961Z,5.32
2017-11-26T16:12:12.520Z,5.24
2017-11-26T16:14:40.079Z,5.25
2017-11-26T16:17:07.642Z,5.23
2017-11-26T16:19:35.242Z,5.27
2017-11-26T16:22:02.803Z,5.31
2017-11-26T16:24:30.398Z,5.29
2017-11-26T16:26:58.801Z,5.30
2017-11-26T16:29:26.443Z,5.41
2017-11-26T16:31:54.000Z,5.31
2017-11-26T16:34:22.350Z,5.29
2017-11-26T16:36:50.854Z,5.34
2017-11-26T16:39:18.515Z,5.29
2017-11-26T16:41:46.107Z,5.26
2017-11-26T16:44:13.693Z,5.29
2017-11-26T16:46:41.325Z,5.31
2017-11-26T16:49:08.890Z,5.24
2017-11-26T16:51:36.542Z,5.29
2017-11-26T16:54:04.141Z,5.21
2017-11-26T16:56:31.709Z,5.14
2017-11-26T16:58:59.268Z,5.13
2017-11-26T17:01:26.871Z,5.20
2017-11-26T17:03:55.237Z,5.22
2017-11-26T17:06:23.719Z,5.19
2017-11-26T17:08:51.315Z,5.24
2017-11-26T17:11:18.905Z,5.17
2017-11-26T17:13:46.577Z,5.11
2017-11-26T17:16:14.966Z,5.04
2017-11-26T17:18:42.576Z,5.07
2017-11-26T17:21:10.135Z,5.06
2017-11-26T17:23:37.702Z,5.02
2017-11-26T17:26:05.293Z,4.98
2017-11-26T17:28:32.854Z,4.87
2017-11-26T17:31:00.442Z,4.97
2017-11-26T17:33:28.081Z,4.92
2017-11-26T17:35:55.740Z,4.99
2017-11-26T17:38:23.401Z,4.94
2017-11-26T17:40:51.001Z,4.96
2017-11-26T17:43:19.346Z,4.91
2017-11-26T17:45:46.930Z,4.87
2017-11-26T17:48:15.412Z,4.98
2017-11-26T17:50:43.498Z,4.93
2017-11-26T17:53:11.057Z,4.84
2017-11-26T17:55:38.677Z,4.94
2017-11-26T17:58:06.338Z,4.91
2017-11-26T18:00:33.894Z,4.89
2017-11-26T18:03:01.572Z,4.90
2017-11-26T18:05:29.126Z,4.95
2017-11-26T18:07:56.692Z,5.03
2017-11-26T18:10:24.261Z,4.95
2017-11-26T18:12:51.823Z,4.95
2017-11-26T18:15:19.389Z,4.95
2017-11-26T18:17:46.953Z,4.93
2017-11-26T18:20:14.523Z,4.87
2017-11-26T18:22:42.076Z,4.94
2017-11-26T18:25:09.630Z,4.90
2017-11-26T18:27:37.184Z,4.97
2017-11-26T18:30:04.774Z,4.94
2017-11-26T18:32:32.347Z,5.03
2017-11-26T18:34:59.906Z,4.95
2017-11-26T18:37:28.438Z,4.96
2017-11-26T18:39:56.756Z,5.01
2017-11-26T18:42:25.293Z,5.04
2017-11-26T18:44:52.897Z,5.05
2017-11-26T18:47:20.449Z,5.09
2017-11-26T18:49:49.935Z,5.02
2017-11-26T18:52:17.529Z,5.11
2017-11-26T18:54:45.088Z,5.05
2017-11-26T18:57:13.522Z,5.09
2017-11-26T18:59:41.953Z,5.06
2017-11-26T19:02:10.458Z,5.11
2017-11-26T19:04:38.016Z,5.10
2017-11-26T19:07:05.580Z,5.04
2017-11-26T19:09:33.189Z,5.14
2017-11-26T19:12:00.758Z,5.08
2017-11-26T19:14:28.572Z,5.06
2017-11-26T19:16:57.190Z,5.04
2017-11-26T19:19:24.819Z,4.98
2017-11-26T19:21:52.381Z,5.01
2017-11-26T19:24:20.070Z,5.03
2017-11-26T19:26:47.633Z,5.00
2017-11-26T19:29:15.236Z,5.02
2017-11-26T19:31:46.669Z,5.08
2017-11-26T19:34:20.432Z,5.08
2017-11-26T19:36:54.222Z,5.07
2017-11-26T19:39:26.268Z,5.09
2017-11-26T19:41:58.444Z,5.13
2017-11-26T19:44:26.085Z,5.07
2017-11-26T19:46:53.774Z,5.06
2017-11-26T19:49:21.581Z,5.05
2017-11-26T19:51:49.320Z,5.05
2017-11-26T19:54:16.979Z,5.19
2017-11-26T19:56:44.763Z,5.11
2017-11-26T19:59:12.927Z,5.06
2017-11-26T20:01:40.487Z,5.13
2017-11-26T20:04:09.107Z,5.18
2017-11-26T20:06:37.767Z,5.14
2017-11-26T20:09:06.259Z,5.14
2017-11-26T20:11:33.846Z,5.15
2017-11-26T20:14:01.680Z,5.15
2017-11-26T20:16:29.326Z,5.05
2017-11-26T20:18:57.130Z,5.02
2017-11-26T20:21:24.835Z,5.14
2017-11-26T20:23:52.398Z,5.01
2017-11-26T20:26:20.081Z,5.03
2017-11-26T20:28:48.773Z,4.95
2017-11-26T20:31:16.506Z,4.98
2017-11-26T20:33:44.315Z,4.99
2017-11-26T20:36:11.905Z,5.02
2017-11-26T20:38:39.969Z,5.04
2017-11-26T20:41:07.808Z,5.11
2017-11-26T20:43:35.672Z,5.04
2017-11-26T20:46:03.379Z,5.08
2017-11-26T20:48:31.925Z,5.11
2017-11-26T20:50:59.502Z,5.14
2017-11-26T20:53:28.099Z,5.12
2017-11-26T20:55:55.861Z,5.14
2017-11-26T20:58:24.529Z,5.19
2017-11-26T21:00:52.089Z,5.18
2017-11-26T21:03:19.647Z,5.15
2017-11-26T21:05:47.207Z,5.08
2017-11-26T21:08:15.602Z,5.15
2017-11-26T21:10:43.843Z,5.09
2017-11-26T21:13:11.657Z,5.09
2017-11-26T21:15:39.250Z,5.01
2017-11-26T21:18:06.811Z,5.09
2017-11-26T21:20:34.535Z,5.07
2017-11-26T21:23:02.134Z,5.07
2017-11-26T21:25:30.441Z,5.11
2017-11-26T21:27:58.797Z,5.11
2017-11-26T21:30:26.488Z,5.11
2017-11-26T21:32:54.079Z,5.12
2017-11-26T21:35:21.730Z,5.13
2017-11-26T21:37:49.303Z,5.12
2017-11-26T21:40:16.868Z,5.03
2017-11-26T21:42:44.523Z,5.02
2017-11-26T21:45:12.153Z,5.10
2017-11-26T21:47:39.753Z,5.10
2017-11-26T21:50:07.311Z,5.15
2017-11-26T21:52:34.909Z,5.16
2017-11-26T21:55:02.469Z,5.12
2017-11-26T21:57:30.322Z,5.17
2017-11-26T21:59:57.886Z,5.13
2017-11-26T22:02:26.358Z,5.18
2017-11-26T22:04:53.939Z,5.15
2017-11-26T22:07:21.558Z,5.20
2017-11-26T22:09:49.121Z,5.18
2017-11-26T22:12:16.690Z,5.16
2017-11-26T22:14:44.353Z,5.12
2017-11-26T22:17:12.017Z,5.08
2017-11-26T22:19:39.582Z,5.14
2017-11-26T22:22:07.151Z,5.09
2017-11-26T22:24:34.800Z,5.24
2017-11-26T22:27:02.362Z,5.10
2017-11-26T22:29:29.922Z,5.08
2017-11-26T22:31:57.582Z,5.17
2017-11-26T22:34:26.041Z,5.09
2017-11-26T22:36:54.307Z,5.06
2017-11-26T22:39:21.858Z,5.02
2017-11-26T22:41:49.419Z,4.97
2017-11-26T22:44:17.014Z,5.15
2017-11-26T22:46:44.678Z,5.11
2017-11-26T22:49:12.338Z,5.14
2017-11-26T22:51:39.899Z,5.17
2017-11-26T22:54:07.533Z,5.08
2017-11-26T22:56:35.130Z,5.13
2017-11-26T22:59:02.695Z,5.11
2017-11-26T23:01:30.267Z,5.10
2017-11-26T23:03:57.830Z,5.11
2017-11-26T23:06:25.473Z,5.14
2017-11-26T23:08:53.248Z,5.16
2017-11-26T23:11:21.630Z,5.16
2017-11-26T23:13:49.194Z,5.14
2017-11-26T23:16:16.762Z,5.17
2017-11-26T23:18:44.363Z,5.16
2017-11-26T23:21:11.969Z,5.19
2017-11-26T23:23:39.530Z,5.23
2017-11-26T23:26:07.970Z,5.12
2017-11-26T23:28:35.535Z,5.12
2017-11-26T23:31:04.013Z,5.20
2017-11-26T23:33:31.573Z,5.29
2017-11-26T23:36:00.044Z,5.24
2017-11-26T23:38:27.650Z,5.25
2017-11-26T23:40:55.251Z,5.21
2017-11-26T23:43:22.813Z,5.16
2017-11-26T23:45:51.277Z,5.09
2017-11-26T23:48:18.852Z,5.12
2017-11-26T23:50:46.469Z,4.95
2017-11-26T23:53:14.918Z,4.95
2017-11-26T23:55:43.282Z,5.12
2017-11-26T23:58:11.765Z,5.01
